createdAt,value
2019-04-10T00:00:24.827Z,91.84
2019-04-10T00:01:25.680Z,91.65
2019-04-10T00:02:25.622Z,91.17
2019-04-10T00:03:32.357Z,91.08
2019-04-10T00:04:25.212Z,91.27
2019-04-10T00:05:45.338Z,91.17
2019-04-10T00:06:24.253Z,91.08
2019-04-10T00:07:24.257Z,91.08
2019-04-10T00:08:24.158Z,90.61
2019-04-10T00:09:25.053Z,90.70
2019-04-10T00:10:23.933Z,90.03
2019-04-10T00:11:45.130Z,90.03
2019-04-10T00:12:23.788Z,90.03
2019-04-10T00:13:24.644Z,90.42
2019-04-10T00:14:24.095Z,89.84
2019-04-10T00:15:24.351Z,90.99
2019-04-10T00:16:24.413Z,91.17
2019-04-10T00:17:45.081Z,91.94
2019-04-10T00:18:24.154Z,91.75
2019-04-10T00:19:23.312Z,91.75
2019-04-10T00:20:23.159Z,91.75
2019-04-10T00:21:23.084Z,91.08
2019-04-10T00:22:22.995Z,91.08
2019-04-10T00:23:43.920Z,90.89
2019-04-10T00:24:23.806Z,91.17
2019-04-10T00:25:22.771Z,91.65
2019-04-10T00:26:23.710Z,90.89
2019-04-10T00:27:22.780Z,90.89
2019-04-10T00:28:23.382Z,91.08
2019-04-10T00:29:44.589Z,91.75
2019-04-10T00:30:22.363Z,91.84
2019-04-10T00:31:23.014Z,91.94
2019-04-10T00:32:22.279Z,91.75
2019-04-10T00:33:22.890Z,91.94
2019-04-10T00:34:23.085Z,91.75
2019-04-10T00:35:43.737Z,91.75
2019-04-10T00:36:22.004Z,91.65
2019-04-10T00:37:26.824Z,92.22
2019-04-10T00:38:21.853Z,91.75
2019-04-10T00:39:22.296Z,91.75
2019-04-10T00:40:21.621Z,91.65
2019-04-10T00:41:42.483Z,91.84
2019-04-10T00:42:21.527Z,92.13
2019-04-10T00:43:22.474Z,91.75
2019-04-10T00:44:21.618Z,92.03
2019-04-10T00:45:21.663Z,92.13
2019-04-10T00:46:22.088Z,91.84
2019-04-10T00:47:42.010Z,92.03
2019-04-10T00:48:21.057Z,92.03
2019-04-10T00:49:21.810Z,91.94
2019-04-10T00:50:20.865Z,92.13
2019-04-10T00:51:21.344Z,92.13
2019-04-10T00:52:21.788Z,92.22
2019-04-10T00:53:41.536Z,92.03
2019-04-10T00:54:21.627Z,91.89
2019-04-10T00:55:20.394Z,92.03
2019-04-10T00:56:20.760Z,92.75
2019-04-10T00:57:21.242Z,92.65
2019-04-10T00:58:20.408Z,91.84
2019-04-10T00:59:42.074Z,91.89
2019-04-10T01:00:21.840Z,91.99
2019-04-10T01:01:19.920Z,92.27
2019-04-10T01:02:20.619Z,92.08
2019-04-10T01:03:19.771Z,91.80
2019-04-10T01:04:20.361Z,92.08
2019-04-10T01:05:41.467Z,91.61
2019-04-10T01:06:19.913Z,91.42
2019-04-10T01:07:32.425Z,91.42
2019-04-10T01:08:20.252Z,91.51
2019-04-10T01:09:19.511Z,92.08
2019-04-10T01:10:19.895Z,91.80
2019-04-10T01:11:41.323Z,92.18
2019-04-10T01:12:19.490Z,91.99
2019-04-10T01:13:19.103Z,92.84
2019-04-10T01:14:18.905Z,92.75
2019-04-10T01:15:18.886Z,92.56
2019-04-10T01:16:19.550Z,92.84
2019-04-10T01:17:40.230Z,92.27
2019-04-10T01:18:19.200Z,92.08
2019-04-10T01:19:19.570Z,92.18
2019-04-10T01:20:19.571Z,92.08
2019-04-10T01:21:18.351Z,91.61
2019-04-10T01:22:19.035Z,91.80
2019-04-10T01:23:39.360Z,92.27
2019-04-10T01:24:18.124Z,92.84
2019-04-10T01:25:18.665Z,91.99
2019-04-10T01:26:19.026Z,91.22
2019-04-10T01:27:18.038Z,91.03
2019-04-10T01:28:17.857Z,91.03
2019-04-10T01:29:39.810Z,91.13
2019-04-10T01:30:18.086Z,91.13
2019-04-10T01:31:17.554Z,91.89
2019-04-10T01:32:17.573Z,91.32
2019-04-10T01:33:17.403Z,92.08
2019-04-10T01:34:17.390Z,91.42
2019-04-10T01:35:38.366Z,91.99
2019-04-10T01:36:17.167Z,92.75
2019-04-10T01:37:17.084Z,92.94
2019-04-10T01:38:17.567Z,92.99
2019-04-10T01:39:17.909Z,93.70
2019-04-10T01:40:17.131Z,93.70
2019-04-10T01:41:37.746Z,93.51
2019-04-10T01:42:16.716Z,93.27
2019-04-10T01:43:19.639Z,93.46
2019-04-10T01:44:16.638Z,93.41
2019-04-10T01:45:17.422Z,93.37
2019-04-10T01:46:16.446Z,93.37
2019-04-10T01:47:37.328Z,93.08
2019-04-10T01:48:16.252Z,94.22
2019-04-10T01:49:16.140Z,94.03
2019-04-10T01:50:16.158Z,94.03
2019-04-10T01:51:16.928Z,94.60
2019-04-10T01:52:15.974Z,94.13
2019-04-10T01:53:37.681Z,93.84
2019-04-10T01:54:15.782Z,92.41
2019-04-10T01:55:23.891Z,91.56
2019-04-10T01:56:22.861Z,90.80
2019-04-10T01:57:16.432Z,91.18
2019-04-10T01:58:15.430Z,91.85
2019-04-10T01:59:36.324Z,91.75
2019-04-10T02:00:15.325Z,91.56
2019-04-10T02:01:15.182Z,89.56
2019-04-10T02:02:15.226Z,89.56
2019-04-10T02:03:15.968Z,89.75
2019-04-10T02:04:15.033Z,89.66
2019-04-10T02:05:36.609Z,89.00
2019-04-10T02:06:14.845Z,88.61
2019-04-10T02:07:14.714Z,89.28
2019-04-10T02:08:17.162Z,90.04
2019-04-10T02:09:15.047Z,90.42
2019-04-10T02:10:14.562Z,92.75
2019-04-10T02:11:35.372Z,93.70
2019-04-10T02:12:14.562Z,94.27
2019-04-10T02:13:14.919Z,94.27
2019-04-10T02:14:14.181Z,94.08
2019-04-10T02:15:15.779Z,92.41
2019-04-10T02:16:14.596Z,91.52
2019-04-10T02:17:34.898Z,91.80
2019-04-10T02:18:14.053Z,90.75
2019-04-10T02:19:14.268Z,90.19
2019-04-10T02:20:14.618Z,89.42
2019-04-10T02:21:13.761Z,88.85
2019-04-10T02:22:14.106Z,88.00
2019-04-10T02:23:34.428Z,87.71
2019-04-10T02:24:14.540Z,87.90
2019-04-10T02:25:13.821Z,88.38
2019-04-10T02:26:13.655Z,88.76
2019-04-10T02:27:14.006Z,88.67
2019-04-10T02:28:13.091Z,89.28
2019-04-10T02:29:33.947Z,90.90
2019-04-10T02:30:16.384Z,91.75
2019-04-10T02:31:14.591Z,92.61
2019-04-10T02:32:14.424Z,93.08
2019-04-10T02:33:13.920Z,94.32
2019-04-10T02:34:13.012Z,93.94
2019-04-10T02:35:34.020Z,94.23
2019-04-10T02:36:13.048Z,95.27
2019-04-10T02:37:12.897Z,96.41
2019-04-10T02:38:32.758Z,96.98
2019-04-10T02:39:23.980Z,98.02
2019-04-10T02:40:12.806Z,98.59
2019-04-10T02:41:34.585Z,98.21
2019-04-10T02:42:11.927Z,96.50
2019-04-10T02:43:13.845Z,94.98
2019-04-10T02:44:12.322Z,95.17
2019-04-10T02:45:12.647Z,96.03
2019-04-10T02:46:11.615Z,97.45
2019-04-10T02:47:32.638Z,97.64
2019-04-10T02:48:12.188Z,97.45
2019-04-10T02:49:12.318Z,97.64
2019-04-10T02:50:12.515Z,97.83
2019-04-10T02:51:11.314Z,95.27
2019-04-10T02:52:12.849Z,93.37
2019-04-10T02:53:32.056Z,91.47
2019-04-10T02:54:11.385Z,90.33
2019-04-10T02:55:11.868Z,90.99
2019-04-10T02:56:11.811Z,90.33
2019-04-10T02:57:11.348Z,90.05
2019-04-10T02:58:10.658Z,89.19
2019-04-10T02:59:33.374Z,90.14
2019-04-10T03:00:12.738Z,90.95
2019-04-10T03:01:11.251Z,92.37
2019-04-10T03:02:11.618Z,93.89
2019-04-10T03:03:11.884Z,94.84
2019-04-10T03:04:11.868Z,96.55
2019-04-10T03:05:32.475Z,98.54
2019-04-10T03:06:11.436Z,99.30
2019-04-10T03:07:11.377Z,98.73
2019-04-10T03:08:11.246Z,99.21
2019-04-10T03:09:28.180Z,99.97
2019-04-10T03:10:20.438Z,99.99
2019-04-10T03:11:31.231Z,99.99
2019-04-10T03:12:10.449Z,99.99
2019-04-10T03:13:09.479Z,99.99
2019-04-10T03:14:10.629Z,97.41
2019-04-10T03:15:10.655Z,94.65
2019-04-10T03:16:09.286Z,94.65
2019-04-10T03:17:30.297Z,94.37
2019-04-10T03:18:09.064Z,94.08
2019-04-10T03:19:09.486Z,93.99
2019-04-10T03:20:09.985Z,94.46
2019-04-10T03:21:08.946Z,95.89
2019-04-10T03:22:09.084Z,99.21
2019-04-10T03:23:29.642Z,99.99
2019-04-10T03:24:09.527Z,99.99
2019-04-10T03:25:08.895Z,99.49
2019-04-10T03:26:09.640Z,98.54
2019-04-10T03:27:08.352Z,97.92
2019-04-10T03:28:09.111Z,96.36
2019-04-10T03:29:29.626Z,95.17
2019-04-10T03:30:10.142Z,94.42
2019-04-10T03:31:08.189Z,96.41
2019-04-10T03:32:07.951Z,98.68
2019-04-10T03:33:12.289Z,99.99
2019-04-10T03:34:09.226Z,99.99
2019-04-10T03:35:28.775Z,99.99
2019-04-10T03:36:07.620Z,99.99
2019-04-10T03:37:07.698Z,99.99
2019-04-10T03:38:07.881Z,99.99
2019-04-10T03:39:07.961Z,99.99
2019-04-10T03:40:07.288Z,99.99
2019-04-10T03:41:28.297Z,99.99
2019-04-10T03:42:07.135Z,99.99
2019-04-10T03:43:07.694Z,99.99
2019-04-10T03:44:08.058Z,99.99
2019-04-10T03:45:07.549Z,99.99
2019-04-10T03:46:06.811Z,99.99
2019-04-10T03:47:27.824Z,99.99
2019-04-10T03:48:06.658Z,99.99
2019-04-10T03:49:06.580Z,99.99
2019-04-10T03:50:06.713Z,99.99
2019-04-10T03:51:06.419Z,99.99
2019-04-10T03:52:07.243Z,99.99
2019-04-10T03:53:27.233Z,99.99
2019-04-10T03:54:06.870Z,99.06
2019-04-10T03:55:06.087Z,98.40
2019-04-10T03:56:06.022Z,99.54
2019-04-10T03:57:06.656Z,99.73
2019-04-10T03:58:05.888Z,99.91
2019-04-10T03:59:26.746Z,99.91
2019-04-10T04:00:05.785Z,99.82
2019-04-10T04:01:05.622Z,99.99
2019-04-10T04:02:05.524Z,99.99
2019-04-10T04:03:06.414Z,99.99
2019-04-10T04:04:05.374Z,99.99
2019-04-10T04:05:26.671Z,99.99
2019-04-10T04:06:05.209Z,99.99
2019-04-10T04:07:05.226Z,99.99
2019-04-10T04:08:05.524Z,99.99
2019-04-10T04:09:09.381Z,98.68
2019-04-10T04:10:04.893Z,99.35
2019-04-10T04:11:26.006Z,99.16
2019-04-10T04:12:04.730Z,99.73
2019-04-10T04:13:06.027Z,99.99
2019-04-10T04:14:04.559Z,99.26
2019-04-10T04:15:05.388Z,96.12
2019-04-10T04:16:04.398Z,94.70
2019-04-10T04:17:26.244Z,94.60
2019-04-10T04:18:04.527Z,95.17
2019-04-10T04:19:04.190Z,96.59
2019-04-10T04:20:04.421Z,98.59
2019-04-10T04:21:04.104Z,99.35
2019-04-10T04:22:04.068Z,99.91
2019-04-10T04:23:25.755Z,98.30
2019-04-10T04:24:03.762Z,94.32
2019-04-10T04:25:04.582Z,93.56
2019-04-10T04:26:03.593Z,94.03
2019-04-10T04:27:04.723Z,93.80
2019-04-10T04:28:04.551Z,95.22
2019-04-10T04:29:24.723Z,96.50
2019-04-10T04:30:04.225Z,97.26
2019-04-10T04:31:03.210Z,98.59
2019-04-10T04:32:03.109Z,99.96
2019-04-10T04:33:03.039Z,99.99
2019-04-10T04:34:03.940Z,99.99
2019-04-10T04:35:23.963Z,99.99
2019-04-10T04:36:02.795Z,99.99
2019-04-10T04:37:02.716Z,99.99
2019-04-10T04:38:02.638Z,99.99
2019-04-10T04:39:12.796Z,99.99
2019-04-10T04:40:03.060Z,99.99
2019-04-10T04:41:23.495Z,99.99
2019-04-10T04:42:03.065Z,99.99
2019-04-10T04:43:02.318Z,99.99
2019-04-10T04:44:02.138Z,99.99
2019-04-10T04:45:03.055Z,99.99
2019-04-10T04:46:02.224Z,99.99
2019-04-10T04:47:22.926Z,99.99
2019-04-10T04:48:01.899Z,99.99
2019-04-10T04:49:02.591Z,99.99
2019-04-10T04:50:01.656Z,99.99
2019-04-10T04:51:01.646Z,99.99
2019-04-10T04:52:02.518Z,99.99
2019-04-10T04:53:22.432Z,99.99
2019-04-10T04:54:01.468Z,99.99
2019-04-10T04:55:01.964Z,99.99
2019-04-10T04:56:01.760Z,99.99
2019-04-10T04:57:01.284Z,99.99
2019-04-10T04:58:01.965Z,99.99
2019-04-10T04:59:21.915Z,99.99
2019-04-10T05:00:03.300Z,99.99
2019-04-10T05:01:00.772Z,99.99
2019-04-10T05:02:08.794Z,99.87
2019-04-10T05:03:00.612Z,99.87
2019-04-10T05:04:02.558Z,99.77
2019-04-10T05:05:21.435Z,99.40
2019-04-10T05:06:00.519Z,99.97
2019-04-10T05:07:00.283Z,99.40
2019-04-10T05:08:02.943Z,99.99
2019-04-10T05:09:00.134Z,99.99
2019-04-10T05:10:01.665Z,99.99
2019-04-10T05:11:20.960Z,99.99
2019-04-10T05:12:00.631Z,99.99
2019-04-10T05:12:59.987Z,99.99
2019-04-10T05:13:59.858Z,99.99
2019-04-10T05:15:00.373Z,99.99
2019-04-10T05:15:59.779Z,99.99
2019-04-10T05:17:20.460Z,99.99
2019-04-10T05:17:59.757Z,99.99
2019-04-10T05:18:59.579Z,99.99
2019-04-10T05:19:59.384Z,99.87
2019-04-10T05:20:59.170Z,99.97
2019-04-10T05:21:59.542Z,99.77
2019-04-10T05:23:19.982Z,99.87
2019-04-10T05:23:59.692Z,99.49
2019-04-10T05:24:58.840Z,99.68
2019-04-10T05:25:59.200Z,99.49
2019-04-10T05:26:59.229Z,99.11
2019-04-10T05:27:59.405Z,99.58
2019-04-10T05:29:19.677Z,99.58
2019-04-10T05:29:58.632Z,99.49
2019-04-10T05:30:58.917Z,99.49
2019-04-10T05:31:58.766Z,99.49
2019-04-10T05:32:58.202Z,99.21
2019-04-10T05:33:58.159Z,99.58
2019-04-10T05:35:19.357Z,99.02
2019-04-10T05:35:59.007Z,99.11
2019-04-10T05:36:58.830Z,98.64
2019-04-10T05:37:58.267Z,99.21
2019-04-10T05:38:57.839Z,99.11
2019-04-10T05:39:57.783Z,99.02
2019-04-10T05:41:19.590Z,98.79
2019-04-10T05:41:57.694Z,99.40
2019-04-10T05:42:57.474Z,99.02
2019-04-10T05:43:58.557Z,99.44
2019-04-10T05:44:57.232Z,98.59
2019-04-10T05:45:57.316Z,98.79
2019-04-10T05:47:19.221Z,98.59
2019-04-10T05:47:57.045Z,98.02
2019-04-10T05:48:57.902Z,98.21
2019-04-10T05:49:57.708Z,97.55
2019-04-10T05:51:03.014Z,98.02
2019-04-10T05:51:57.639Z,98.02
2019-04-10T05:53:18.436Z,97.17
2019-04-10T05:53:56.501Z,97.55
2019-04-10T05:54:57.598Z,97.64
2019-04-10T05:55:56.346Z,96.98
2019-04-10T05:56:56.369Z,97.55
2019-04-10T05:57:57.991Z,97.17
2019-04-10T05:59:17.169Z,97.36
2019-04-10T05:59:56.365Z,97.45
2019-04-10T06:00:56.838Z,97.27
2019-04-10T06:01:56.773Z,96.98
2019-04-10T06:02:56.444Z,97.27
2019-04-10T06:03:56.571Z,96.98
2019-04-10T06:05:16.697Z,96.50
2019-04-10T06:05:56.679Z,96.60
2019-04-10T06:06:55.517Z,97.17
2019-04-10T06:07:55.387Z,97.36
2019-04-10T06:08:56.172Z,97.45
2019-04-10T06:10:00.343Z,96.88
2019-04-10T06:11:17.157Z,96.98
2019-04-10T06:11:55.337Z,96.50
2019-04-10T06:12:55.072Z,95.46
2019-04-10T06:13:54.936Z,94.89
2019-04-10T06:14:54.818Z,95.12
2019-04-10T06:15:55.095Z,95.32
2019-04-10T06:17:16.430Z,95.17
2019-04-10T06:17:54.664Z,94.18
2019-04-10T06:18:55.357Z,94.08
2019-04-10T06:19:54.489Z,94.37
2019-04-10T06:20:54.565Z,94.18
2019-04-10T06:21:54.501Z,92.75
2019-04-10T06:23:15.155Z,91.52
2019-04-10T06:23:54.194Z,91.61
2019-04-10T06:24:54.387Z,92.18
2019-04-10T06:25:54.178Z,92.18
2019-04-10T06:26:54.091Z,94.27
2019-04-10T06:27:53.928Z,94.56
2019-04-10T06:29:14.947Z,93.79
2019-04-10T06:29:53.703Z,93.51
2019-04-10T06:30:54.496Z,93.70
2019-04-10T06:31:54.765Z,93.32
2019-04-10T06:32:53.849Z,93.23
2019-04-10T06:33:53.357Z,94.18
2019-04-10T06:35:14.196Z,93.32
2019-04-10T06:35:53.235Z,92.27
2019-04-10T06:36:53.486Z,91.80
2019-04-10T06:37:53.039Z,91.52
2019-04-10T06:38:53.095Z,91.52
2019-04-10T06:40:05.115Z,91.42
2019-04-10T06:41:16.102Z,90.19
2019-04-10T06:41:52.784Z,90.00
2019-04-10T06:42:54.683Z,90.94
2019-04-10T06:43:53.126Z,91.08
2019-04-10T06:44:52.436Z,90.61
2019-04-10T06:45:52.440Z,89.66
2019-04-10T06:47:13.849Z,88.90
2019-04-10T06:47:52.967Z,88.90
2019-04-10T06:48:52.122Z,89.37
2019-04-10T06:49:52.612Z,89.94
2019-04-10T06:50:51.941Z,89.94
2019-04-10T06:51:51.903Z,89.09
2019-04-10T06:53:14.653Z,89.09
2019-04-10T06:54:00.954Z,89.00
2019-04-10T06:54:51.624Z,89.56
2019-04-10T06:55:52.396Z,90.14
2019-04-10T06:56:52.416Z,91.37
2019-04-10T06:57:57.041Z,91.47
2019-04-10T06:59:12.325Z,91.56
2019-04-10T06:59:52.342Z,89.61
2019-04-10T07:00:53.211Z,87.23
2019-04-10T07:01:54.514Z,86.43
2019-04-10T07:02:50.982Z,85.90
2019-04-10T07:04:00.453Z,86.18
2019-04-10T07:05:12.370Z,84.47
2019-04-10T07:06:03.415Z,84.47
2019-04-10T07:07:00.147Z,85.90
2019-04-10T07:07:54.261Z,86.18
2019-04-10T07:08:53.343Z,85.90
2019-04-10T07:09:54.472Z,85.99
2019-04-10T07:11:13.128Z,86.94
2019-04-10T07:11:55.540Z,86.85
2019-04-10T07:12:51.195Z,87.23
2019-04-10T07:13:51.212Z,87.13
2019-04-10T07:14:51.565Z,85.33
2019-04-10T07:15:54.480Z,84.19
2019-04-10T07:17:13.854Z,84.19
2019-04-10T07:17:49.789Z,84.33
2019-04-10T07:18:50.995Z,84.52
2019-04-10T07:19:49.634Z,86.13
2019-04-10T07:20:50.396Z,86.32
2019-04-10T07:21:49.473Z,84.80
2019-04-10T07:23:13.857Z,85.47
2019-04-10T07:23:49.310Z,85.37
2019-04-10T07:24:51.759Z,85.37
2019-04-10T07:25:49.943Z,84.42
2019-04-10T07:26:50.776Z,83.28
2019-04-10T07:27:49.000Z,81.76
2019-04-10T07:29:10.952Z,81.85
2019-04-10T07:29:50.987Z,81.28
2019-04-10T07:30:48.822Z,80.71
2019-04-10T07:31:48.848Z,81.47
2019-04-10T07:32:49.196Z,80.80
2019-04-10T07:33:50.459Z,81.28
2019-04-10T07:35:09.539Z,81.47
2019-04-10T07:35:48.358Z,81.51
2019-04-10T07:36:48.359Z,81.51
2019-04-10T07:37:51.575Z,81.60
2019-04-10T07:38:48.910Z,80.65
2019-04-10T07:39:48.891Z,79.80
2019-04-10T07:41:15.431Z,80.65
2019-04-10T07:41:47.881Z,81.13
2019-04-10T07:42:48.532Z,79.60
2019-04-10T07:43:52.815Z,78.78
2019-04-10T07:44:47.698Z,78.78
2019-04-10T07:45:47.630Z,78.31
2019-04-10T07:47:08.596Z,78.41
2019-04-10T07:47:48.310Z,79.36
2019-04-10T07:48:47.413Z,78.98
2019-04-10T07:49:48.248Z,77.83
2019-04-10T07:50:48.293Z,78.50
2019-04-10T07:51:48.478Z,76.79
2019-04-10T07:53:08.380Z,76.40
2019-04-10T07:53:47.014Z,76.50
2019-04-10T07:54:46.943Z,76.69
2019-04-10T07:55:58.413Z,77.78
2019-04-10T07:56:47.254Z,78.16
2019-04-10T07:57:48.569Z,78.16
2019-04-10T07:59:08.711Z,77.87
2019-04-10T07:59:46.562Z,77.20
2019-04-10T08:00:46.981Z,77.69
2019-04-10T08:01:47.369Z,76.54
2019-04-10T08:02:46.918Z,76.25
2019-04-10T08:03:46.540Z,76.64
2019-04-10T08:05:08.060Z,76.16
2019-04-10T08:05:46.127Z,76.35
2019-04-10T08:06:46.843Z,74.44
2019-04-10T08:07:45.907Z,74.73
2019-04-10T08:08:46.654Z,76.35
2019-04-10T08:09:46.418Z,77.40
2019-04-10T08:11:07.162Z,77.69
2019-04-10T08:11:46.761Z,77.30
2019-04-10T08:12:50.200Z,77.34
2019-04-10T08:13:45.436Z,76.82
2019-04-10T08:14:46.329Z,78.39
2019-04-10T08:15:45.409Z,77.34
2019-04-10T08:17:06.123Z,77.06
2019-04-10T08:17:48.233Z,74.38
2019-04-10T08:18:45.703Z,73.62
2019-04-10T08:19:45.288Z,75.34
2019-04-10T08:20:44.824Z,76.96
2019-04-10T08:21:44.767Z,76.48
2019-04-10T08:23:07.474Z,74.96
2019-04-10T08:23:44.687Z,75.95
2019-04-10T08:24:46.190Z,75.37
2019-04-10T08:25:44.491Z,74.80
2019-04-10T08:26:45.122Z,74.23
2019-04-10T08:27:44.302Z,72.61
2019-04-10T08:29:05.743Z,72.42
2019-04-10T08:29:44.210Z,71.94
2019-04-10T08:30:44.054Z,71.18
2019-04-10T08:31:44.289Z,72.07
2019-04-10T08:32:53.412Z,72.13
2019-04-10T08:33:44.114Z,74.55
2019-04-10T08:35:04.835Z,73.50
2019-04-10T08:35:43.676Z,72.45
2019-04-10T08:36:43.664Z,72.45
2019-04-10T08:37:43.583Z,71.21
2019-04-10T08:38:43.422Z,70.83
2019-04-10T08:39:46.515Z,71.31
2019-04-10T08:41:05.118Z,70.36
2019-04-10T08:41:43.766Z,70.92
2019-04-10T08:42:44.992Z,72.55
2019-04-10T08:43:43.085Z,72.64
2019-04-10T08:44:42.963Z,72.93
2019-04-10T08:45:48.652Z,72.01
2019-04-10T08:47:03.794Z,71.53
2019-04-10T08:47:42.807Z,71.06
2019-04-10T08:48:43.393Z,69.91
2019-04-10T08:49:43.236Z,69.82
2019-04-10T08:50:42.622Z,71.15
2019-04-10T08:51:43.622Z,70.39
2019-04-10T08:53:04.087Z,71.47
2019-04-10T08:53:42.506Z,70.52
2019-04-10T08:54:42.558Z,69.05
2019-04-10T08:55:42.178Z,67.43
2019-04-10T08:56:42.818Z,68.10
2019-04-10T08:57:41.960Z,68.38
2019-04-10T08:59:03.432Z,69.62
2019-04-10T08:59:44.116Z,69.82
2019-04-10T09:00:42.759Z,70.52
2019-04-10T09:01:41.782Z,69.85
2019-04-10T09:02:42.339Z,69.43
2019-04-10T09:03:41.496Z,68.57
2019-04-10T09:05:03.539Z,68.51
2019-04-10T09:05:41.349Z,68.90
2019-04-10T09:06:41.823Z,69.27
2019-04-10T09:07:41.216Z,70.04
2019-04-10T09:08:43.482Z,68.70
2019-04-10T09:09:41.542Z,68.80
2019-04-10T09:11:02.951Z,71.00
2019-04-10T09:11:41.048Z,70.90
2019-04-10T09:12:41.125Z,70.52
2019-04-10T09:13:40.947Z,71.19
2019-04-10T09:14:41.268Z,70.84
2019-04-10T09:15:40.581Z,68.74
2019-04-10T09:17:02.754Z,69.02
2019-04-10T09:17:41.653Z,69.70
2019-04-10T09:18:41.208Z,68.74
2019-04-10T09:19:40.357Z,69.02
2019-04-10T09:20:40.587Z,67.78
2019-04-10T09:21:40.274Z,66.44
2019-04-10T09:23:20.059Z,67.36
2019-04-10T09:23:48.273Z,67.08
2019-04-10T09:24:39.887Z,67.55
2019-04-10T09:25:39.896Z,68.99
2019-04-10T09:26:40.310Z,70.42
2019-04-10T09:27:39.989Z,69.76
2019-04-10T09:29:00.555Z,69.41
2019-04-10T09:29:40.355Z,69.12
2019-04-10T09:30:40.669Z,69.21
2019-04-10T09:31:40.028Z,67.69
2019-04-10T09:32:39.276Z,66.63
2019-04-10T09:33:39.333Z,66.25
2019-04-10T09:35:00.300Z,66.57
2019-04-10T09:35:39.133Z,66.09
2019-04-10T09:36:39.644Z,67.53
2019-04-10T09:37:39.894Z,67.43
2019-04-10T09:38:39.054Z,66.00
2019-04-10T09:39:39.186Z,66.57
2019-04-10T09:40:59.644Z,66.09
2019-04-10T09:41:38.673Z,67.63
2019-04-10T09:42:39.561Z,68.39
2019-04-10T09:43:38.580Z,66.57
2019-04-10T09:44:38.359Z,67.05
2019-04-10T09:45:39.261Z,67.24
2019-04-10T09:47:00.017Z,68.68
2019-04-10T09:47:38.302Z,69.92
2019-04-10T09:48:38.057Z,66.09
2019-04-10T09:49:42.997Z,67.82
2019-04-10T09:50:37.905Z,68.20
2019-04-10T09:51:38.297Z,67.05
2019-04-10T09:52:59.906Z,66.00
2019-04-10T09:53:37.827Z,65.26
2019-04-10T09:54:38.281Z,64.69
2019-04-10T09:55:38.320Z,64.98
2019-04-10T09:56:38.478Z,64.69
2019-04-10T09:57:37.673Z,64.79
2019-04-10T09:58:58.802Z,64.50
2019-04-10T09:59:39.662Z,63.64
2019-04-10T10:00:38.184Z,64.31
2019-04-10T10:01:37.937Z,65.45
2019-04-10T10:02:37.967Z,68.42
2019-04-10T10:03:37.086Z,68.62
2019-04-10T10:04:57.866Z,68.23
2019-04-10T10:05:36.961Z,65.17
2019-04-10T10:06:38.086Z,63.57
2019-04-10T10:07:36.895Z,64.31
2019-04-10T10:08:36.544Z,64.69
2019-04-10T10:09:36.648Z,65.36
2019-04-10T10:10:57.646Z,64.34
2019-04-10T10:11:36.447Z,64.25
2019-04-10T10:12:36.499Z,65.30
2019-04-10T10:13:37.271Z,65.58
2019-04-10T10:14:36.076Z,65.88
2019-04-10T10:15:36.136Z,65.97
2019-04-10T10:16:57.980Z,64.63
2019-04-10T10:17:36.960Z,64.34
2019-04-10T10:18:35.781Z,63.93
2019-04-10T10:19:36.330Z,64.25
2019-04-10T10:20:35.662Z,64.31
2019-04-10T10:21:36.621Z,65.39
2019-04-10T10:22:56.457Z,64.53
2019-04-10T10:23:36.084Z,64.15
2019-04-10T10:24:35.323Z,63.00
2019-04-10T10:25:35.407Z,63.16
2019-04-10T10:26:36.364Z,63.26
2019-04-10T10:27:35.285Z,64.12
2019-04-10T10:28:56.496Z,65.36
2019-04-10T10:29:35.640Z,66.03
2019-04-10T10:30:35.595Z,65.74
2019-04-10T10:31:35.963Z,63.64
2019-04-10T10:32:35.144Z,62.84
2019-04-10T10:33:34.727Z,63.54
2019-04-10T10:34:55.602Z,63.51
2019-04-10T10:35:35.484Z,64.56
2019-04-10T10:36:39.468Z,64.40
2019-04-10T10:37:34.571Z,65.23
2019-04-10T10:38:34.889Z,65.04
2019-04-10T10:39:34.932Z,65.33
2019-04-10T10:40:55.122Z,64.75
2019-04-10T10:41:34.172Z,62.94
2019-04-10T10:42:36.998Z,63.80
2019-04-10T10:43:34.288Z,65.23
2019-04-10T10:44:34.167Z,65.71
2019-04-10T10:45:34.663Z,65.33
2019-04-10T10:46:55.678Z,65.52
2019-04-10T10:47:33.698Z,65.52
2019-04-10T10:48:33.755Z,65.90
2019-04-10T10:49:34.695Z,65.71
2019-04-10T10:50:33.369Z,63.99
2019-04-10T10:51:33.323Z,63.13
2019-04-10T10:52:54.209Z,63.64
2019-04-10T10:53:34.466Z,63.23
2019-04-10T10:54:33.061Z,62.74
2019-04-10T10:55:33.791Z,63.89
2019-04-10T10:56:33.870Z,64.85
2019-04-10T10:57:33.348Z,64.66
2019-04-10T10:58:56.250Z,65.71
2019-04-10T10:59:33.533Z,67.05
2019-04-10T11:00:33.552Z,65.33
2019-04-10T11:01:32.682Z,65.36
2019-04-10T11:02:32.478Z,64.50
2019-04-10T11:03:32.472Z,62.97
2019-04-10T11:04:53.889Z,62.68
2019-04-10T11:05:33.255Z,62.40
2019-04-10T11:06:33.171Z,62.97
2019-04-10T11:07:32.977Z,64.47
2019-04-10T11:08:32.244Z,65.17
2019-04-10T11:09:32.593Z,62.97
2019-04-10T11:11:32.572Z,62.84
2019-04-10T11:12:31.717Z,63.89
2019-04-10T11:13:33.053Z,62.94
2019-04-10T11:14:31.588Z,64.09
2019-04-10T11:15:32.054Z,63.42
2019-04-10T11:16:53.563Z,63.83
2019-04-10T11:17:31.595Z,65.26
2019-04-10T11:18:31.257Z,66.32
2019-04-10T11:19:31.270Z,64.31
2019-04-10T11:20:32.203Z,64.50
2019-04-10T11:21:32.393Z,65.36
2019-04-10T11:22:51.958Z,65.55
2019-04-10T11:23:30.979Z,63.39
2019-04-10T11:24:31.549Z,62.52
2019-04-10T11:25:30.787Z,62.01
2019-04-10T11:26:30.657Z,63.19
2019-04-10T11:27:31.796Z,63.39
2019-04-10T11:28:51.498Z,63.76
2019-04-10T11:29:31.497Z,62.23
2019-04-10T11:30:30.352Z,62.43
2019-04-10T11:31:31.380Z,63.10
2019-04-10T11:32:30.460Z,63.29
2019-04-10T11:33:30.740Z,63.76
2019-04-10T11:34:51.034Z,64.43
2019-04-10T11:35:31.673Z,63.19
2019-04-10T11:36:30.094Z,62.33
2019-04-10T11:38:29.876Z,62.52
2019-04-10T11:39:33.061Z,64.34
2019-04-10T11:40:52.166Z,65.01
2019-04-10T11:41:31.123Z,65.58
2019-04-10T11:42:31.787Z,63.70
2019-04-10T11:43:30.209Z,62.55
2019-04-10T11:44:29.783Z,61.18
2019-04-10T11:45:39.325Z,62.26
2019-04-10T11:46:52.685Z,64.47
2019-04-10T11:47:29.860Z,64.47
2019-04-10T11:48:29.461Z,63.51
2019-04-10T11:49:29.542Z,63.80
2019-04-10T11:50:30.014Z,64.66
2019-04-10T11:51:31.629Z,65.05
2019-04-10T11:52:53.175Z,62.68
2019-04-10T11:53:28.790Z,60.47
2019-04-10T11:54:31.655Z,61.34
2019-04-10T11:55:29.732Z,60.28
2019-04-10T11:56:29.971Z,60.38
2019-04-10T11:57:30.824Z,61.27
2019-04-10T11:59:28.955Z,58.49
2019-04-10T12:00:30.277Z,60.50
2019-04-10T12:01:30.662Z,58.59
2019-04-10T12:02:30.426Z,58.97
2019-04-10T12:03:28.247Z,58.78
2019-04-10T12:05:29.704Z,59.06
2019-04-10T12:06:30.915Z,60.60
2019-04-10T12:07:58.602Z,59.29
2019-04-10T12:11:27.285Z,57.85
2019-04-10T12:12:27.981Z,59.48
2019-04-10T12:13:27.231Z,59.48
2019-04-10T12:14:27.875Z,60.82
2019-04-10T12:15:27.929Z,59.96
2019-04-10T12:16:47.902Z,58.52
2019-04-10T12:17:27.731Z,58.42
2019-04-10T12:18:26.841Z,58.14
2019-04-10T12:19:26.992Z,58.42
2019-04-10T12:20:27.120Z,56.98
2019-04-10T12:21:26.666Z,56.70
2019-04-10T12:22:48.312Z,57.08
2019-04-10T12:23:27.201Z,59.09
2019-04-10T12:24:26.335Z,60.63
2019-04-10T12:25:27.081Z,60.05
2019-04-10T12:26:26.180Z,57.56
2019-04-10T12:27:27.131Z,56.51
2019-04-10T12:28:47.022Z,57.65
2019-04-10T12:29:26.748Z,59.00
2019-04-10T12:30:26.932Z,59.67
2019-04-10T12:31:26.076Z,60.82
2019-04-10T12:32:25.734Z,59.19
2019-04-10T12:33:25.728Z,59.38
2019-04-10T12:34:46.601Z,60.05
2019-04-10T12:35:25.539Z,60.05
2019-04-10T12:36:26.580Z,59.77
2019-04-10T12:37:25.613Z,60.35
2019-04-10T12:38:25.566Z,61.21
2019-04-10T12:39:25.256Z,62.65
2019-04-10T12:40:46.719Z,60.25
2019-04-10T12:41:25.601Z,59.48
2019-04-10T12:42:24.999Z,60.15
2019-04-10T12:43:25.902Z,60.35
2019-04-10T12:44:25.476Z,58.91
2019-04-10T12:45:24.890Z,57.37
2019-04-10T12:46:45.731Z,55.93
2019-04-10T12:47:25.766Z,56.22
2019-04-10T12:48:24.575Z,56.98
2019-04-10T12:49:25.536Z,58.01
2019-04-10T12:50:24.720Z,57.53
2019-04-10T12:51:25.584Z,59.74
2019-04-10T12:52:45.250Z,61.18
2019-04-10T12:53:24.359Z,59.74
2019-04-10T12:54:24.110Z,59.26
2019-04-10T12:55:24.240Z,59.16
2019-04-10T12:56:24.091Z,58.52
2019-04-10T12:57:24.055Z,57.75
2019-04-10T12:58:44.809Z,58.42